Time;durP1;ratioP1;P1;durP2;ratioP2;P2;SDS_P1;SDS_P2;PMS_P1;PMS_P2;Temp;Humidity;BMP_temperature;BMP_pressure;BME280_temperature;BME280_humidity;BME280_pressure;Samples;Min_cycle;Max_cycle;Signal;HPM_P1;HPM_P2
2021/06/22 00:00:54;;;;;;;;;;;;;;;26.77;51.35;100506.13;4943822;28;96939;-83
2021/06/22 00:03:20;;;;;;;;;;;;;;;26.61;51.53;100516.88;4961829;28;102109;-83
2021/06/22 00:05:47;;;;;;;;;;;;;;;26.93;50.75;100511.59;4957422;28;99167;-83
2021/06/22 00:08:13;;;;;;;;;;;;;;;26.76;51.56;100512.56;4950791;28;96902;-84
2021/06/22 00:10:41;;;;;;;;;;;;;;;26.62;52.01;100515.03;4957878;28;96851;-83
2021/06/22 00:13:08;;;;;;;;;;;;;;;26.35;52.53;100524.22;4958078;28;99783;-83
2021/06/22 00:15:34;;;;;;;;;;;;;;;26.33;52.67;100518.09;4954673;28;97861;-83
2021/06/22 00:18:01;;;;;;;;;;;;;;;26.35;52.60;100525.06;4953526;28;97412;-84
2021/06/22 00:20:27;;;;;;;;;;;;;;;26.20;53.47;100524.78;4954946;28;96797;-84
2021/06/22 00:22:54;;;;;;;;;;;;;;;26.07;54.02;100528.91;4941593;28;99045;-84
2021/06/22 00:25:22;;;;;;;;;;;;;;;26.21;53.48;100525.63;4957252;28;101751;-81
2021/06/22 00:27:50;;;;;;;;;;;;;;;26.33;53.33;100531.63;4957220;28;96881;-82
2021/06/22 00:30:17;;;;;;;;;;;;;;;26.64;52.79;100538.25;4957127;28;97263;-83
2021/06/22 00:32:44;;;;;;;;;;;;;;;26.38;53.28;100538.31;4939402;28;98926;-82
2021/06/22 00:35:10;;;;;;;;;;;;;;;26.87;52.03;100544.78;4938899;28;98012;-83
2021/06/22 00:37:37;;;;;;;;;;;;;;;26.52;52.91;100543.09;4937475;28;96782;-83
2021/06/22 00:40:04;;;;;;;;;;;;;;;26.55;52.89;100540.06;4935299;28;96733;-83
2021/06/22 00:42:30;;;;;;;;;;;;;;;26.53;53.18;100536.66;4931593;28;99303;-82
2021/06/22 00:44:59;;;;;;;;;;;;;;;26.81;52.09;100525.59;4935887;28;98282;-82
2021/06/22 00:47:27;;;;;;;;;;;;;;;26.91;51.86;100521.75;4935670;28;97347;-82
2021/06/22 00:49:55;;;;;;;;;;;;;;;26.87;51.78;100533.06;4934149;28;97648;-82
2021/06/22 00:52:22;;;;;;;;;;;;;;;27.00;51.70;100532.63;4936694;28;98120;-82
2021/06/22 00:54:48;;;;;;;;;;;;;;;26.98;51.58;100546.34;4937947;28;98859;-83
2021/06/22 00:57:15;;;;;;;;;;;;;;;26.74;52.07;100565.22;4937325;28;96728;-83
2021/06/22 00:59:42;;;;;;;;;;;;;;;27.00;51.41;100548.91;4939909;28;97605;-82
2021/06/22 01:02:10;;;;;;;;;;;;;;;26.94;51.49;100561.25;4938563;28;97823;-82
2021/06/22 01:04:36;;;;;;;;;;;;;;;26.78;51.64;100564.72;4946401;28;99101;-82
2021/06/22 01:07:04;;;;;;;;;;;;;;;27.01;51.21;100567.72;4955298;28;96711;-82
2021/06/22 01:09:31;;;;;;;;;;;;;;;26.48;52.89;100576.94;4944050;28;96625;-83
2021/06/22 01:14:42;;;;;;;;;;;;;;;26.95;51.48;100584.66;4948459;28;96761;-82
2021/06/22 01:17:10;;;;;;;;;;;;;;;26.52;52.71;100597.28;4954158;28;97623;-84
2021/06/22 01:19:36;;;;;;;;;;;;;;;26.77;52.09;100603.69;4954155;28;96955;-83
2021/06/22 01:22:04;;;;;;;;;;;;;;;26.63;52.02;100604.31;4946364;28;99616;-83
2021/06/22 01:24:32;;;;;;;;;;;;;;;26.76;52.15;100603.84;4949509;28;97707;-82
2021/06/22 01:26:59;;;;;;;;;;;;;;;26.33;53.32;100597.50;4941642;28;96830;-83
2021/06/22 01:29:26;;;;;;;;;;;;;;;26.19;53.49;100600.75;4938504;28;97039;-82
2021/06/22 01:31:53;;;;;;;;;;;;;;;26.54;52.90;100597.97;4945487;28;100157;-82
2021/06/22 01:34:21;;;;;;;;;;;;;;;26.58;52.71;100593.09;4940670;28;97970;-82
2021/06/22 01:36:47;;;;;;;;;;;;;;;25.51;55.84;100597.78;4942101;28;96810;-83
2021/06/22 01:39:16;;;;;;;;;;;;;;;26.09;53.95;100589.19;4947553;28;96839;-86
2021/06/22 01:41:42;;;;;;;;;;;;;;;26.26;53.71;100588.31;4943126;28;100050;-85
2021/06/22 01:44:09;;;;;;;;;;;;;;;26.20;53.62;100583.50;4943070;28;98904;-84
2021/06/22 01:46:35;;;;;;;;;;;;;;;26.16;53.65;100591.09;4944672;28;96746;-85
2021/06/22 01:49:02;;;;;;;;;;;;;;;25.77;54.88;100595.19;4940827;28;97701;-84
2021/06/22 01:51:28;;;;;;;;;;;;;;;26.11;54.02;100589.88;4942073;28;100960;-84
2021/06/22 01:53:57;;;;;;;;;;;;;;;26.18;53.53;100601.78;4939371;28;97768;-83
2021/06/22 01:56:25;;;;;;;;;;;;;;;25.64;54.55;100595.56;4942852;28;96751;-83
2021/06/22 01:58:52;;;;;;;;;;;;;;;26.04;54.20;100599.63;4944298;28;98264;-83
2021/06/22 02:01:19;;;;;;;;;;;;;;;25.90;54.43;100613.72;4936734;28;99298;-82
2021/06/22 02:03:47;;;;;;;;;;;;;;;25.82;54.58;100600.97;4940776;28;96831;-83
2021/06/22 02:06:15;;;;;;;;;;;;;;;25.67;55.12;100605.22;4942836;28;97707;-83
2021/06/22 02:08:42;;;;;;;;;;;;;;;25.86;54.10;100615.91;4947712;28;96766;-84
2021/06/22 02:11:08;;;;;;;;;;;;;;;26.13;53.09;100625.75;4942826;28;99340;-83
2021/06/22 02:13:35;;;;;;;;;;;;;;;26.41;52.42;100627.34;4948978;28;101195;-83
2021/06/22 02:16:02;;;;;;;;;;;;;;;25.65;54.60;100627.03;4952297;28;96894;-82
2021/06/22 02:18:28;;;;;;;;;;;;;;;26.16;52.90;100642.56;4958901;28;97014;-83
2021/06/22 02:20:55;;;;;;;;;;;;;;;26.04;53.23;100645.66;4956283;28;97749;-83
2021/06/22 02:23:21;;;;;;;;;;;;;;;26.04;52.97;100653.78;4953542;28;98569;-83
2021/06/22 02:25:48;;;;;;;;;;;;;;;26.00;53.36;100657.78;4953939;28;97447;-82
2021/06/22 02:28:15;;;;;;;;;;;;;;;26.20;52.33;100653.91;4943370;28;97563;-82
2021/06/22 02:30:43;;;;;;;;;;;;;;;26.03;52.95;100646.66;4953687;28;99530;-82
2021/06/22 02:33:10;;;;;;;;;;;;;;;26.23;52.39;100645.47;4968191;28;98353;-80
2021/06/22 02:35:37;;;;;;;;;;;;;;;25.86;52.85;100648.41;4963183;28;96886;-82
2021/06/22 02:38:04;;;;;;;;;;;;;;;25.89;52.99;100649.91;4972866;28;96686;-78
2021/06/22 02:40:30;;;;;;;;;;;;;;;25.60;54.00;100664.50;4963183;28;100971;-80
2021/06/22 02:42:57;;;;;;;;;;;;;;;25.66;53.76;100663.06;4964490;28;96856;-84
2021/06/22 02:45:24;;;;;;;;;;;;;;;25.76;53.36;100653.88;4943991;28;96752;-83
2021/06/22 02:47:53;;;;;;;;;;;;;;;25.80;52.72;100657.97;4948921;28;97075;-83
2021/06/22 02:50:20;;;;;;;;;;;;;;;26.13;51.99;100674.50;4947086;28;102031;-83
2021/06/22 02:52:47;;;;;;;;;;;;;;;26.28;51.23;100675.69;4948608;28;98906;-81
2021/06/22 02:55:21;;;;;;;;;;;;;;;25.89;51.94;100668.88;4939972;28;96933;-83
2021/06/22 02:57:48;;;;;;;;;;;;;;;26.06;51.62;100665.28;4943578;28;96786;-83
2021/06/22 03:00:15;;;;;;;;;;;;;;;25.76;51.63;100667.41;4944188;28;97947;-84
2021/06/22 03:02:42;;;;;;;;;;;;;;;25.92;51.11;100665.88;4953032;28;99211;-83
2021/06/22 03:05:11;;;;;;;;;;;;;;;25.52;51.77;100669.81;4953735;28;97119;-82
2021/06/22 03:07:37;;;;;;;;;;;;;;;24.70;54.59;100677.00;4944495;28;97610;-84
2021/06/22 03:10:05;;;;;;;;;;;;;;;24.96;53.78;100672.66;4941863;28;100993;-82
2021/06/22 03:12:32;;;;;;;;;;;;;;;25.15;53.26;100677.97;4951175;28;96693;-83
2021/06/22 03:15:00;;;;;;;;;;;;;;;25.24;52.90;100670.84;4947370;28;96806;-84
2021/06/22 03:17:27;;;;;;;;;;;;;;;25.35;52.76;100671.47;4942536;28;96969;-82
2021/06/22 03:19:55;;;;;;;;;;;;;;;25.15;53.63;100658.22;4941225;28;97620;-83
2021/06/22 03:22:22;;;;;;;;;;;;;;;24.90;54.39;100665.16;4944070;28;97920;-83
2021/06/22 03:24:49;;;;;;;;;;;;;;;25.70;52.15;100657.19;4943201;28;96748;-83
2021/06/22 03:27:16;;;;;;;;;;;;;;;25.18;53.10;100655.22;4946923;28;98413;-83
2021/06/22 03:29:43;;;;;;;;;;;;;;;24.90;53.97;100663.31;4945934;28;99026;-82
2021/06/22 03:32:09;;;;;;;;;;;;;;;24.96;53.79;100670.81;4949144;28;98847;-81
2021/06/22 03:34:36;;;;;;;;;;;;;;;25.39;52.52;100683.72;4957403;28;96908;-82
2021/06/22 03:37:02;;;;;;;;;;;;;;;25.33;52.43;100694.28;4950074;28;96848;-82
2021/06/22 03:39:30;;;;;;;;;;;;;;;25.52;52.36;100696.03;4952833;28;101202;-84
2021/06/22 03:41:57;;;;;;;;;;;;;;;25.93;50.73;100695.47;4959183;28;98972;-84
2021/06/22 03:44:23;;;;;;;;;;;;;;;26.01;50.44;100703.66;4959942;28;98791;-84
2021/06/22 03:46:50;;;;;;;;;;;;;;;25.91;51.15;100704.75;4960511;28;96966;-82
2021/06/22 03:49:16;;;;;;;;;;;;;;;25.79;51.00;100704.16;4958664;28;99383;-83
2021/06/22 03:51:44;;;;;;;;;;;;;;;25.36;52.11;100708.34;4940961;28;99020;-83
2021/06/22 03:54:14;;;;;;;;;;;;;;;25.54;51.87;100721.91;4957327;28;96767;-83
2021/06/22 03:56:42;;;;;;;;;;;;;;;26.06;50.51;100705.91;4960524;28;97054;-85
2021/06/22 03:59:11;;;;;;;;;;;;;;;25.93;50.42;100710.88;4960801;28;99331;-84
2021/06/22 04:01:38;;;;;;;;;;;;;;;25.89;50.60;100704.06;4962834;28;98150;-83
2021/06/22 04:04:04;;;;;;;;;;;;;;;25.66;51.32;100707.22;4960051;28;96835;-84
2021/06/22 04:06:31;;;;;;;;;;;;;;;25.97;50.24;100712.28;4956473;28;96788;-84
2021/06/22 04:08:57;;;;;;;;;;;;;;;25.97;50.62;100717.69;4973610;28;100891;-83
2021/06/22 04:11:24;;;;;;;;;;;;;;;25.54;51.73;100715.63;4974043;28;96641;-84
2021/06/22 04:13:52;;;;;;;;;;;;;;;25.58;51.75;100711.69;4971026;28;96887;-83
2021/06/22 04:16:18;;;;;;;;;;;;;;;25.83;51.13;100718.22;4951980;28;96602;-83
2021/06/22 04:18:45;;;;;;;;;;;;;;;25.77;51.11;100711.56;4970844;28;97894;-83
2021/06/22 04:21:11;;;;;;;;;;;;;;;26.01;50.38;100724.47;4957739;28;98031;-84
2021/06/22 04:23:37;;;;;;;;;;;;;;;25.71;51.10;100728.41;4956056;28;96947;-84
2021/06/22 04:26:04;;;;;;;;;;;;;;;25.52;51.75;100742.88;4961089;28;96819;-83
2021/06/22 04:28:31;;;;;;;;;;;;;;;24.98;53.29;100744.50;4957158;28;98172;-82
2021/06/22 04:30:58;;;;;;;;;;;;;;;25.21;52.29;100744.13;4963151;28;96808;-82
2021/06/22 04:33:25;;;;;;;;;;;;;;;25.46;51.66;100745.31;4960826;28;98505;-84
2021/06/22 04:35:51;;;;;;;;;;;;;;;25.21;52.01;100753.09;4959251;28;97309;-84
2021/06/22 04:38:18;;;;;;;;;;;;;;;25.02;52.89;100764.84;4953363;28;99760;-83
2021/06/22 04:40:44;;;;;;;;;;;;;;;25.38;51.80;100762.31;4962634;28;102626;-82
2021/06/22 04:43:10;;;;;;;;;;;;;;;25.07;52.37;100777.06;4962002;28;96848;-81
2021/06/22 04:45:37;;;;;;;;;;;;;;;25.49;51.56;100780.19;4961855;28;96914;-83
2021/06/22 04:48:05;;;;;;;;;;;;;;;24.78;53.09;100794.16;4962365;28;97841;-83
2021/06/22 04:50:32;;;;;;;;;;;;;;;24.78;53.43;100799.56;4962480;28;98007;-82
2021/06/22 04:52:58;;;;;;;;;;;;;;;24.96;52.80;100805.97;4968915;28;97876;-82
2021/06/22 04:55:25;;;;;;;;;;;;;;;25.01;52.53;100811.78;4972495;28;97151;-82
2021/06/22 04:57:52;;;;;;;;;;;;;;;24.32;53.71;100805.69;4969106;28;99952;-83
2021/06/22 05:00:22;;;;;;;;;;;;;;;24.21;54.75;100822.91;4965719;28;98838;-82
2021/06/22 05:02:48;;;;;;;;;;;;;;;24.21;54.33;100819.34;4963108;28;96726;-82
2021/06/22 05:05:16;;;;;;;;;;;;;;;24.54;53.61;100812.69;4956913;28;97129;-83
2021/06/22 05:07:42;;;;;;;;;;;;;;;24.11;54.39;100800.38;4965376;28;100302;-83
2021/06/22 05:10:10;;;;;;;;;;;;;;;24.24;54.10;100816.34;4963774;28;98021;-83
2021/06/22 05:12:36;;;;;;;;;;;;;;;24.34;53.96;100811.81;4967483;28;96614;-85
2021/06/22 05:15:03;;;;;;;;;;;;;;;23.87;55.10;100812.56;5068596;22;97803;-85
2021/06/22 05:17:29;;;;;;;;;;;;;;;24.42;53.35;100808.38;4930680;28;97955;-84
2021/06/22 05:19:56;;;;;;;;;;;;;;;24.08;54.49;100814.19;4944275;28;99361;-83
2021/06/22 05:22:23;;;;;;;;;;;;;;;24.29;53.64;100807.81;4951361;28;96823;-85
2021/06/22 05:24:50;;;;;;;;;;;;;;;24.02;54.00;100828.22;4948802;28;96803;-84
2021/06/22 05:27:16;;;;;;;;;;;;;;;23.80;54.60;100833.84;4946572;28;101662;-83
2021/06/22 05:29:43;;;;;;;;;;;;;;;24.30;53.36;100831.13;4946326;28;100164;-83
2021/06/22 05:32:10;;;;;;;;;;;;;;;24.36;53.19;100827.84;4951603;28;97006;-81
2021/06/22 05:34:37;;;;;;;;;;;;;;;24.35;52.88;100827.00;4952318;28;96905;-84
2021/06/22 05:37:04;;;;;;;;;;;;;;;24.30;53.12;100831.13;4945440;28;99143;-83
2021/06/22 05:39:32;;;;;;;;;;;;;;;24.35;52.68;100834.28;4948215;28;101157;-85
2021/06/22 05:41:59;;;;;;;;;;;;;;;24.18;53.08;100828.53;4949549;28;96848;-84
2021/06/22 05:44:26;;;;;;;;;;;;;;;24.65;52.15;100828.72;4945198;28;96942;-84
2021/06/22 05:46:53;;;;;;;;;;;;;;;24.79;50.95;100828.31;4939422;28;97894;-82
2021/06/22 05:49:21;;;;;;;;;;;;;;;24.97;50.54;100842.81;4941732;28;99803;-82
2021/06/22 05:51:47;;;;;;;;;;;;;;;24.71;51.04;100840.81;4945117;28;96947;-82
2021/06/22 05:54:14;;;;;;;;;;;;;;;24.79;50.67;100839.13;4946483;28;97956;-81
2021/06/22 05:56:41;;;;;;;;;;;;;;;24.93;50.52;100836.00;4945386;28;96908;-82
2021/06/22 05:59:08;;;;;;;;;;;;;;;25.10;49.76;100838.94;4947727;28;99160;-81
2021/06/22 06:01:34;;;;;;;;;;;;;;;24.67;50.81;100839.41;4941859;28;96896;-82
2021/06/22 06:04:01;;;;;;;;;;;;;;;24.76;50.49;100838.53;4947460;28;96766;-83
2021/06/22 06:06:27;;;;;;;;;;;;;;;24.01;53.05;100840.00;4949612;28;99398;-81
2021/06/22 06:08:54;;;;;;;;;;;;;;;24.28;52.46;100838.53;4954962;28;98079;-83
2021/06/22 06:11:20;;;;;;;;;;;;;;;24.21;52.50;100844.50;4958855;28;97534;-82
2021/06/22 06:13:49;;;;;;;;;;;;;;;23.92;53.40;100850.75;4958706;28;96522;-82
2021/06/22 06:16:15;;;;;;;;;;;;;;;24.43;51.86;100858.72;4941659;28;98192;-83
2021/06/22 06:18:42;;;;;;;;;;;;;;;24.72;50.94;100859.59;4951240;28;100111;-81
2021/06/22 06:23:56;;;;;;;;;;;;;;;24.07;52.69;100871.84;4961376;28;96649;-82
2021/06/22 06:26:23;;;;;;;;;;;;;;;24.21;52.10;100882.28;4960920;28;100357;-82
2021/06/22 06:28:59;;;;;;;;;;;;;;;24.08;52.52;100878.97;4959721;28;98129;-84
2021/06/22 06:31:26;;;;;;;;;;;;;;;24.33;52.02;100874.06;4949319;28;96605;-82
2021/06/22 06:33:54;;;;;;;;;;;;;;;24.14;51.85;100873.00;4958917;28;96751;-84
2021/06/22 06:36:22;;;;;;;;;;;;;;;24.20;51.68;100874.31;4954091;28;96883;-84
2021/06/22 06:38:52;;;;;;;;;;;;;;;24.32;50.71;100873.22;4960002;28;99378;-87
2021/06/22 06:41:19;;;;;;;;;;;;;;;24.50;50.38;100876.06;4958014;28;97483;-83
2021/06/22 06:43:45;;;;;;;;;;;;;;;24.39;49.84;100885.16;4944696;28;96972;-82
2021/06/22 06:46:13;;;;;;;;;;;;;;;24.55;49.79;100895.41;4947954;28;98570;-82
2021/06/22 06:48:41;;;;;;;;;;;;;;;24.62;49.25;100900.09;4943006;28;100345;-81
2021/06/22 06:51:08;;;;;;;;;;;;;;;24.10;50.63;100912.03;4949957;28;96856;-82
2021/06/22 06:53:35;;;;;;;;;;;;;;;24.12;50.44;100910.06;4950556;28;96556;-83
2021/06/22 06:56:04;;;;;;;;;;;;;;;23.87;51.57;100915.09;4950479;28;100748;-83
2021/06/22 06:58:31;;;;;;;;;;;;;;;23.96;51.06;100922.38;4951794;28;100663;-82
2021/06/22 07:00:57;;;;;;;;;;;;;;;24.19;50.06;100915.81;4951556;28;97023;-82
2021/06/22 07:03:26;;;;;;;;;;;;;;;24.13;50.69;100916.31;4943359;28;96899;-83
2021/06/22 07:05:54;;;;;;;;;;;;;;;24.07;50.68;100917.75;4948185;28;98095;-82
2021/06/22 07:08:21;;;;;;;;;;;;;;;23.92;50.72;100913.69;4956431;28;96990;-82
2021/06/22 07:10:48;;;;;;;;;;;;;;;22.98;53.46;100922.72;4961214;28;96666;-82
2021/06/22 07:18:38;;;;;;;;;;;;;;;23.76;51.72;100924.97;4944241;28;98747;-82
2021/06/22 07:21:04;;;;;;;;;;;;;;;24.41;49.28;100917.44;4933140;28;96877;-83
2021/06/22 07:23:31;;;;;;;;;;;;;;;24.86;48.38;100924.03;4932628;28;99360;-83
2021/06/22 07:25:57;;;;;;;;;;;;;;;25.14;47.30;100922.31;4927118;28;99338;-83
2021/06/22 07:28:24;;;;;;;;;;;;;;;24.72;48.06;100923.59;4933392;28;99926;-83
2021/06/22 07:30:50;;;;;;;;;;;;;;;24.87;47.92;100930.28;4933591;28;96842;-82
2021/06/22 07:33:17;;;;;;;;;;;;;;;24.55;48.68;100914.31;4931549;28;97477;-82
2021/06/22 07:35:45;;;;;;;;;;;;;;;23.70;50.89;100911.16;4929109;28;99157;-82
2021/06/22 07:38:13;;;;;;;;;;;;;;;23.82;50.93;100908.28;4928692;28;99916;-83
2021/06/22 07:40:40;;;;;;;;;;;;;;;24.84;48.32;100895.44;4941355;28;96980;-83
2021/06/22 07:43:07;;;;;;;;;;;;;;;25.04;47.12;100901.72;4942227;28;97537;-82
2021/06/22 07:45:33;;;;;;;;;;;;;;;24.90;47.12;100905.69;4943207;28;97851;-82
2021/06/22 07:48:00;;;;;;;;;;;;;;;24.27;49.34;100904.31;4938489;28;98809;-82
2021/06/22 07:50:28;;;;;;;;;;;;;;;24.44;49.00;100903.63;4936814;28;96898;-83
2021/06/22 07:52:56;;;;;;;;;;;;;;;24.29;49.00;100921.22;4939324;28;98331;-82
2021/06/22 07:55:24;;;;;;;;;;;;;;;24.40;48.87;100918.44;4937252;28;100699;-82
2021/06/22 07:57:51;;;;;;;;;;;;;;;23.70;50.65;100921.97;4932817;28;98938;-81
2021/06/22 08:00:30;;;;;;;;;;;;;;;23.95;50.21;100915.28;4936594;28;97005;-81
2021/06/22 08:02:57;;;;;;;;;;;;;;;24.50;48.86;100914.75;4937320;28;97098;-81
2021/06/22 08:05:24;;;;;;;;;;;;;;;24.74;48.24;100913.50;4946201;28;99280;-82
2021/06/22 08:07:51;;;;;;;;;;;;;;;24.70;48.02;100915.63;4937177;28;98042;-81
2021/06/22 08:10:23;;;;;;;;;;;;;;;23.97;50.28;100918.66;4949810;28;96775;-81
2021/06/22 08:12:51;;;;;;;;;;;;;;;24.49;49.32;100933.78;4946635;28;96776;-82
2021/06/22 08:15:19;;;;;;;;;;;;;;;24.42;49.17;100922.69;4942109;28;99564;-80
2021/06/22 08:17:46;;;;;;;;;;;;;;;24.32;49.86;100934.47;4952004;28;99257;-82
2021/06/22 08:20:13;;;;;;;;;;;;;;;24.33;49.59;100936.19;4950238;28;96901;-81
2021/06/22 08:22:41;;;;;;;;;;;;;;;24.31;48.98;100930.91;4949690;28;96811;-81
2021/06/22 08:25:08;;;;;;;;;;;;;;;24.29;49.81;100932.03;4954090;28;97183;-83
2021/06/22 08:27:39;;;;;;;;;;;;;;;23.98;51.23;100929.34;4953117;28;100030;-82
2021/06/22 08:30:06;;;;;;;;;;;;;;;23.32;52.49;100950.38;4938569;28;96840;-82
2021/06/22 08:32:33;;;;;;;;;;;;;;;23.88;50.90;100955.44;4939835;28;96899;-82
2021/06/22 08:34:59;;;;;;;;;;;;;;;23.62;51.31;100960.41;4941949;28;98854;-82
2021/06/22 08:37:26;;;;;;;;;;;;;;;24.08;50.59;100945.59;4942380;28;99307;-81
2021/06/22 08:39:52;;;;;;;;;;;;;;;24.27;50.37;100947.53;4942694;28;97011;-82
2021/06/22 08:42:19;;;;;;;;;;;;;;;24.18;49.95;100952.72;4941484;28;96839;-81
2021/06/22 08:44:49;;;;;;;;;;;;;;;24.51;49.20;100961.50;4941651;28;96986;-82
2021/06/22 08:47:15;;;;;;;;;;;;;;;;;;4936983;28;97988;-81
2021/06/22 08:49:42;;;;;;;;;;;;;;;23.64;51.05;100962.97;4945332;28;96770;-82
2021/06/22 08:52:09;;;;;;;;;;;;;;;24.16;50.51;100973.59;4954703;28;98943;-85
2021/06/22 08:54:36;;;;;;;;;;;;;;;24.42;49.06;100971.28;4956669;28;97027;-82
2021/06/22 08:57:03;;;;;;;;;;;;;;;24.32;49.31;100978.53;4958240;28;96842;-80
2021/06/22 08:59:29;;;;;;;;;;;;;;;23.99;49.21;100973.38;4955663;28;96684;-81
2021/06/22 09:01:57;;;;;;;;;;;;;;;24.12;48.65;100974.88;4958201;28;96925;-82
2021/06/22 09:04:24;;;;;;;;;;;;;;;23.99;49.24;100976.94;4956605;28;97048;-82
2021/06/22 09:06:51;;;;;;;;;;;;;;;24.23;48.65;100976.63;4956163;28;97349;-83
2021/06/22 09:09:17;;;;;;;;;;;;;;;24.44;47.99;100980.13;4949988;28;96814;-82
2021/06/22 09:12:03;;;;;;;;;;;;;;;24.82;47.10;100976.63;4954310;28;96837;-81
2021/06/22 09:14:33;;;;;;;;;;;;;;;25.17;46.43;100978.84;4945262;28;97846;-82
2021/06/22 09:17:02;;;;;;;;;;;;;;;25.18;46.22;100987.81;4929374;28;119867;-82
2021/06/22 09:19:30;;;;;;;;;;;;;;;23.99;47.91;100989.56;4945100;28;96925;-82
2021/06/22 09:21:57;;;;;;;;;;;;;;;24.22;47.63;100983.88;4949392;28;96995;-83
2021/06/22 09:24:25;;;;;;;;;;;;;;;24.51;46.25;100986.69;4951961;28;98974;-82
2021/06/22 09:26:52;;;;;;;;;;;;;;;24.49;46.30;100999.47;4950532;28;99104;-82
2021/06/22 09:29:20;;;;;;;;;;;;;;;24.17;46.82;101004.16;4952797;28;96722;-82
2021/06/22 09:31:54;;;;;;;;;;;;;;;24.57;46.34;101013.16;4950577;28;96764;-83
2021/06/22 09:34:24;;;;;;;;;;;;;;;24.59;46.17;101018.41;4947952;28;97940;-82
2021/06/22 09:36:52;;;;;;;;;;;;;;;24.43;46.88;101031.56;4946644;28;101591;-82
2021/06/22 09:39:19;;;;;;;;;;;;;;;24.53;46.14;101027.94;4946828;28;96658;-83
2021/06/22 09:41:46;;;;;;;;;;;;;;;24.61;45.94;101028.06;4941204;28;96856;-82
2021/06/22 09:44:17;;;;;;;;;;;;;;;24.25;46.26;101035.91;4949563;28;98728;-86
2021/06/22 09:46:44;;;;;;;;;;;;;;;23.31;48.80;101034.94;4941525;28;98689;-83
2021/06/22 09:49:12;;;;;;;;;;;;;;;23.57;48.74;101042.69;4938078;28;96817;-83
2021/06/22 09:51:50;;;;;;;;;;;;;;;24.11;46.63;101043.34;4940120;28;96922;-82
2021/06/22 09:54:18;;;;;;;;;;;;;;;24.71;45.08;101038.91;4941514;28;100859;-82
2021/06/22 09:57:05;;;;;;;;;;;;;;;24.26;46.09;101040.31;4942045;28;99331;-82
2021/06/22 09:59:33;;;;;;;;;;;;;;;25.18;44.08;101039.19;4932377;28;97526;-82
2021/06/22 10:02:15;;;;;;;;;;;;;;;25.64;43.36;101038.50;4942008;28;96858;-83
2021/06/22 10:04:43;;;;;;;;;;;;;;;25.45;43.10;101042.03;4941108;28;100771;-82
2021/06/22 10:07:13;;;;;;;;;;;;;;;25.08;44.56;101049.13;4937393;28;100353;-82
2021/06/22 10:09:39;;;;;;;;;;;;;;;24.75;45.33;101047.59;4935903;28;97356;-86
2021/06/22 10:12:07;;;;;;;;;;;;;;;24.79;45.39;101049.91;4934681;28;97352;-83
2021/06/22 10:14:34;;;;;;;;;;;;;;;25.19;44.64;101057.97;4935262;28;100804;-82
2021/06/22 10:17:02;;;;;;;;;;;;;;;25.22;44.29;101054.97;4939990;28;98149;-83
2021/06/22 10:19:28;;;;;;;;;;;;;;;25.36;43.96;101061.81;4944059;28;96889;-82
2021/06/22 10:21:56;;;;;;;;;;;;;;;24.84;44.85;101063.84;4942165;28;97922;-82
2021/06/22 10:24:24;;;;;;;;;;;;;;;25.03;44.49;101068.47;4938762;28;100739;-86
2021/06/22 10:26:54;;;;;;;;;;;;;;;25.56;44.04;101065.38;4940296;28;100847;-87
2021/06/22 10:29:21;;;;;;;;;;;;;;;25.55;43.84;101064.53;4942169;28;96843;-81
2021/06/22 10:31:48;;;;;;;;;;;;;;;25.58;44.31;101064.28;4935467;28;97214;-83
2021/06/22 10:34:16;;;;;;;;;;;;;;;24.73;45.79;101073.91;4940490;28;98241;-86
2021/06/22 10:37:14;;;;;;;;;;;;;;;24.84;46.09;101074.66;4952847;28;98877;-85
2021/06/22 10:39:50;;;;;;;;;;;;;;;24.51;46.59;101077.66;4955899;28;96690;-87
2021/06/22 10:42:16;;;;;;;;;;;;;;;25.21;44.61;101084.84;4950661;28;96982;-82
2021/06/22 10:44:45;;;;;;;;;;;;;;;25.34;43.56;101077.31;4937644;28;101790;-82
2021/06/22 10:47:31;;;;;;;;;;;;;;;25.23;44.51;101072.06;4940291;28;98550;-86
2021/06/22 10:50:12;;;;;;;;;;;;;;;25.78;43.73;101071.38;4944932;28;96957;-85
2021/06/22 10:52:49;;;;;;;;;;;;;;;25.76;43.29;101062.56;4940350;28;97181;-83
2021/06/22 10:55:20;;;;;;;;;;;;;;;25.27;43.89;101074.34;4941755;28;99242;-83
2021/06/22 10:58:09;;;;;;;;;;;;;;;25.77;42.87;101080.50;4927243;28;98447;-82
2021/06/22 11:00:50;;;;;;;;;;;;;;;25.65;43.64;101084.38;4936883;28;96779;-83
2021/06/22 11:03:20;;;;;;;;;;;;;;;25.82;43.53;101082.75;4946076;28;96668;-84
2021/06/22 11:05:56;;;;;;;;;;;;;;;25.27;43.56;101087.84;4950783;28;99050;-84
2021/06/22 11:08:29;;;;;;;;;;;;;;;25.51;43.16;101073.94;4928624;28;97453;-83
2021/06/22 11:11:15;;;;;;;;;;;;;;;25.57;43.65;101083.31;4943704;28;96823;-85
2021/06/22 11:13:50;;;;;;;;;;;;;;;24.82;45.89;101084.75;4942651;28;97385;-86
2021/06/22 11:16:25;;;;;;;;;;;;;;;25.18;45.59;101085.16;4939911;28;100647;-83
2021/06/22 11:18:59;;;;;;;;;;;;;;;24.64;46.98;101086.41;4927081;28;99305;-83
2021/06/22 11:21:26;;;;;;;;;;;;;;;25.01;45.98;101090.22;4940503;28;97404;-81
2021/06/22 11:23:56;;;;;;;;;;;;;;;24.99;46.24;101086.84;4938488;28;97098;-83
2021/06/22 11:26:24;;;;;;;;;;;;;;;25.38;44.68;101086.88;4935349;28;98810;-81
2021/06/22 11:28:56;;;;;;;;;;;;;;;24.57;46.00;101090.63;4940049;28;100463;-82
2021/06/22 11:31:33;;;;;;;;;;;;;;;24.54;45.79;101091.78;4939015;28;97190;-81
2021/06/22 11:34:03;;;;;;;;;;;;;;;25.08;44.78;101092.38;4939222;28;96966;-79
2021/06/22 11:36:31;;;;;;;;;;;;;;;25.09;45.01;101091.38;4950740;28;96653;-81
2021/06/22 11:39:11;;;;;;;;;;;;;;;25.82;43.07;101088.19;4949770;28;98035;-81
2021/06/22 11:41:38;;;;;;;;;;;;;;;26.28;42.00;101090.09;4949981;28;96622;-82
2021/06/22 11:44:23;;;;;;;;;;;;;;;26.58;40.79;101087.13;4953024;28;96845;-82
2021/06/22 11:46:53;;;;;;;;;;;;;;;26.88;40.03;101079.72;4954123;28;100263;-83
2021/06/22 11:49:19;;;;;;;;;;;;;;;26.54;40.81;101074.03;4946945;28;99232;-83
2021/06/22 11:52:09;;;;;;;;;;;;;;;25.68;42.51;101069.66;4940480;28;97035;-81
2021/06/22 11:54:55;;;;;;;;;;;;;;;26.46;41.02;101074.78;4939348;28;97675;-81
2021/06/22 11:57:25;;;;;;;;;;;;;;;26.13;41.24;101068.03;4934818;28;97290;-81
2021/06/22 11:59:51;;;;;;;;;;;;;;;25.40;42.65;101072.19;4937908;28;98918;-80
2021/06/22 12:02:20;;;;;;;;;;;;;;;26.15;41.57;101074.16;4934687;28;98277;-80
2021/06/22 12:04:48;;;;;;;;;;;;;;;26.25;40.91;101074.16;4937804;28;97594;-81
2021/06/22 12:07:15;;;;;;;;;;;;;;;26.10;41.32;101073.75;4933623;28;100926;-81
2021/06/22 12:09:42;;;;;;;;;;;;;;;24.79;44.03;101074.22;4932524;28;101849;-81
2021/06/22 12:12:09;;;;;;;;;;;;;;;25.08;43.42;101071.59;4934519;28;96965;-84
2021/06/22 12:14:35;;;;;;;;;;;;;;;26.08;41.77;101067.59;4937720;28;96934;-84
2021/06/22 12:17:12;;;;;;;;;;;;;;;25.77;42.25;101080.50;4934008;28;97801;-85
2021/06/22 12:19:40;;;;;;;;;;;;;;;26.05;41.34;101072.47;4933160;28;100205;-84
2021/06/22 12:22:07;;;;;;;;;;;;;;;25.63;42.14;101072.81;4932645;28;96939;-82
2021/06/22 12:24:50;;;;;;;;;;;;;;;25.45;42.37;101066.38;4937201;28;98291;-81
2021/06/22 12:27:16;;;;;;;;;;;;;;;25.01;43.49;101076.72;4932704;28;101210;-82
2021/06/22 12:29:43;;;;;;;;;;;;;;;26.01;41.42;101066.47;4943044;28;96795;-83
2021/06/22 12:32:11;;;;;;;;;;;;;;;26.98;39.68;101069.69;4935657;28;98078;-83
2021/06/22 12:34:38;;;;;;;;;;;;;;;26.93;38.81;101061.16;4940073;28;97173;-84
2021/06/22 12:37:18;;;;;;;;;;;;;;;27.50;37.92;101072.63;4940048;28;98956;-83
2021/06/22 12:39:45;;;;;;;;;;;;;;;26.70;39.35;101063.41;4939071;28;100053;-83
2021/06/22 12:42:19;;;;;;;;;;;;;;;26.41;40.13;101059.97;4944277;28;97011;-85
2021/06/22 12:44:46;;;;;;;;;;;;;;;27.47;37.79;101048.50;4939020;28;96878;-84
2021/06/22 12:47:12;;;;;;;;;;;;;;;27.51;37.64;101048.00;4947418;28;100767;-84
2021/06/22 12:49:40;;;;;;;;;;;;;;;27.41;37.76;101046.41;4947599;28;98054;-87
2021/06/22 12:52:16;;;;;;;;;;;;;;;27.14;38.59;101056.31;4950106;28;98312;-85